createdAt,value
2023-04-30T00:00:25.812Z,8.80
2023-04-30T00:02:52.387Z,9.40
2023-04-30T00:05:19.138Z,9.13
2023-04-30T00:07:45.626Z,11.43
2023-04-30T00:10:12.291Z,10.02
2023-04-30T00:12:38.971Z,11.02
2023-04-30T00:15:06.046Z,9.90
2023-04-30T00:17:32.590Z,14.43
2023-04-30T00:19:59.055Z,9.10
2023-04-30T00:22:25.604Z,11.27
2023-04-30T00:24:52.276Z,9.15
2023-04-30T00:27:18.770Z,16.52
2023-04-30T00:29:45.407Z,8.45
2023-04-30T00:32:11.917Z,11.50
2023-04-30T00:34:38.462Z,9.82
2023-04-30T00:37:04.969Z,9.93
2023-04-30T00:39:31.402Z,10.82
2023-04-30T00:41:58.030Z,9.82
2023-04-30T00:44:24.565Z,10.73
2023-04-30T00:46:51.082Z,12.05
2023-04-30T00:49:17.768Z,12.15
2023-04-30T00:51:45.663Z,11.32
2023-04-30T00:54:12.746Z,11.10
2023-04-30T00:56:39.303Z,10.10
2023-04-30T00:59:05.928Z,13.15
2023-04-30T01:01:32.927Z,11.73
2023-04-30T01:04:01.063Z,11.02
2023-04-30T01:06:28.310Z,11.13
2023-04-30T01:08:55.133Z,9.65
2023-04-30T01:11:26.407Z,11.48
2023-04-30T01:14:03.825Z,11.68
2023-04-30T01:16:36.427Z,10.57
2023-04-30T01:19:11.837Z,11.35
2023-04-30T01:21:42.224Z,12.70
2023-04-30T01:24:30.356Z,12.02
2023-04-30T01:27:08.350Z,9.93
2023-04-30T01:29:36.655Z,10.27
2023-04-30T01:32:03.708Z,11.60
2023-04-30T01:34:30.229Z,12.77
2023-04-30T01:37:05.550Z,11.77
2023-04-30T01:40:08.637Z,10.00
2023-04-30T01:43:06.192Z,11.57
2023-04-30T01:45:32.640Z,9.93
2023-04-30T01:48:14.080Z,11.35
2023-04-30T01:50:48.508Z,11.23
2023-04-30T01:53:21.829Z,10.35
2023-04-30T01:58:16.624Z,12.00
2023-04-30T02:00:43.196Z,11.27
2023-04-30T02:03:09.812Z,10.68
2023-04-30T02:05:36.379Z,11.63
2023-04-30T02:08:03.372Z,12.00
2023-04-30T02:10:30.649Z,14.00
2023-04-30T02:12:57.193Z,11.85
2023-04-30T02:15:23.895Z,12.80
2023-04-30T02:17:50.695Z,11.13
2023-04-30T02:20:17.268Z,11.82
2023-04-30T02:22:43.817Z,12.98
2023-04-30T02:25:12.379Z,11.02
2023-04-30T02:27:38.987Z,13.13
2023-04-30T02:30:06.494Z,13.10
2023-04-30T02:32:33.208Z,12.73
2023-04-30T02:34:59.795Z,11.30
2023-04-30T02:37:26.342Z,13.02
2023-04-30T02:39:54.627Z,11.82
2023-04-30T02:42:21.296Z,11.88
2023-04-30T02:44:47.795Z,12.27
2023-04-30T02:47:14.252Z,12.45
2023-04-30T02:49:40.824Z,13.80
2023-04-30T02:52:09.597Z,11.68
2023-04-30T02:54:36.637Z,12.85
2023-04-30T02:57:03.421Z,12.80
2023-04-30T02:59:29.967Z,11.82
2023-04-30T03:01:56.489Z,14.48
2023-04-30T03:04:22.970Z,10.27
2023-04-30T03:06:50.764Z,11.02
2023-04-30T03:09:20.079Z,12.32
2023-04-30T03:11:46.842Z,12.00
2023-04-30T03:14:13.340Z,11.90
2023-04-30T03:16:39.909Z,12.07
2023-04-30T03:19:06.581Z,14.02
2023-04-30T03:21:33.164Z,15.52
2023-04-30T03:23:59.700Z,14.07
2023-04-30T03:26:26.238Z,12.70
2023-04-30T03:28:53.016Z,15.20
2023-04-30T03:31:19.531Z,13.85
2023-04-30T03:33:46.077Z,11.75
2023-04-30T03:36:13.218Z,12.60
2023-04-30T03:38:41.782Z,13.82
2023-04-30T03:41:08.344Z,14.00
2023-04-30T03:43:34.773Z,17.55
2023-04-30T03:46:01.307Z,13.35
2023-04-30T03:48:27.818Z,18.73
2023-04-30T03:50:54.272Z,13.68
2023-04-30T03:53:20.694Z,12.38
2023-04-30T03:55:49.299Z,14.82
2023-04-30T03:58:15.860Z,14.43
2023-04-30T04:00:42.490Z,15.93
2023-04-30T04:03:09.017Z,16.10
2023-04-30T04:05:35.539Z,12.63
2023-04-30T04:08:02.067Z,14.63
2023-04-30T04:10:28.896Z,15.18
2023-04-30T04:12:55.498Z,14.52
2023-04-30T04:15:22.049Z,13.27
2023-04-30T04:17:48.711Z,13.70
2023-04-30T04:20:15.327Z,14.75
2023-04-30T04:22:41.804Z,12.40
2023-04-30T04:25:08.764Z,12.65
2023-04-30T04:27:35.495Z,14.57
2023-04-30T04:30:05.481Z,14.68
2023-04-30T04:32:32.770Z,15.18
2023-04-30T04:34:59.345Z,13.23
2023-04-30T04:37:25.807Z,14.00
2023-04-30T04:39:52.768Z,14.60
2023-04-30T04:42:20.528Z,14.82
2023-04-30T04:44:47.066Z,14.18
2023-04-30T04:47:13.548Z,18.02
2023-04-30T04:49:39.962Z,15.48
2023-04-30T04:52:06.607Z,14.18
2023-04-30T04:54:33.462Z,14.88
2023-04-30T04:56:59.909Z,15.57
2023-04-30T04:59:26.689Z,14.68
2023-04-30T05:01:53.253Z,13.50
2023-04-30T05:04:19.808Z,16.38
2023-04-30T05:06:46.892Z,14.88
2023-04-30T05:09:13.477Z,14.73
2023-04-30T05:11:41.566Z,17.20
2023-04-30T05:14:08.184Z,16.80
2023-04-30T05:16:34.716Z,13.57
2023-04-30T05:19:01.256Z,14.85
2023-04-30T05:21:29.793Z,13.30
2023-04-30T05:23:56.342Z,13.85
2023-04-30T05:26:24.343Z,13.13
2023-04-30T05:28:52.331Z,12.88
2023-04-30T05:31:20.808Z,15.38
2023-04-30T05:33:47.666Z,14.48
2023-04-30T05:36:14.608Z,13.35
2023-04-30T05:38:41.402Z,17.60
2023-04-30T05:41:08.085Z,16.08
2023-04-30T05:43:34.693Z,16.00
2023-04-30T05:46:01.252Z,13.80
2023-04-30T05:48:27.796Z,13.38
2023-04-30T05:50:54.367Z,14.30
2023-04-30T05:53:20.825Z,14.80
2023-04-30T05:55:47.406Z,13.80
2023-04-30T05:58:13.883Z,16.02
2023-04-30T06:00:40.524Z,14.48
2023-04-30T06:03:07.798Z,14.07
2023-04-30T06:05:34.372Z,14.65
2023-04-30T06:08:00.890Z,16.05
2023-04-30T06:10:27.522Z,13.73
2023-04-30T06:12:54.060Z,15.57
2023-04-30T06:15:20.568Z,19.30
2023-04-30T06:17:47.148Z,15.55
2023-04-30T06:20:14.819Z,14.43
2023-04-30T06:22:41.315Z,18.55
2023-04-30T06:25:08.305Z,15.65
2023-04-30T06:27:35.011Z,16.60
2023-04-30T06:30:01.487Z,17.77
2023-04-30T06:32:27.982Z,18.25
2023-04-30T06:34:55.826Z,16.65
2023-04-30T06:37:22.345Z,17.73
2023-04-30T06:39:49.667Z,17.55
2023-04-30T06:42:16.148Z,16.20
2023-04-30T06:44:42.807Z,19.00
2023-04-30T06:47:09.278Z,16.55
2023-04-30T06:49:35.732Z,16.77
2023-04-30T06:52:03.165Z,17.40
2023-04-30T06:54:29.633Z,17.20
2023-04-30T06:56:56.260Z,17.17
2023-04-30T06:59:22.803Z,17.40
2023-04-30T07:01:49.352Z,18.65
2023-04-30T07:04:16.244Z,20.77
2023-04-30T07:06:42.943Z,19.30
2023-04-30T07:09:09.685Z,21.13
2023-04-30T07:11:36.625Z,18.15
2023-04-30T07:14:03.186Z,18.35
2023-04-30T07:16:29.804Z,17.90
2023-04-30T07:18:56.401Z,17.33
2023-04-30T07:21:23.757Z,19.10
2023-04-30T07:23:51.630Z,17.45
2023-04-30T07:26:18.495Z,20.50
2023-04-30T07:28:48.083Z,18.02
2023-04-30T07:31:14.606Z,18.65
2023-04-30T07:33:41.327Z,20.35
2023-04-30T07:36:07.980Z,20.10
2023-04-30T07:38:34.467Z,18.83
2023-04-30T07:41:01.803Z,20.20
2023-04-30T07:43:29.965Z,18.15
2023-04-30T07:45:57.704Z,18.92
2023-04-30T07:48:24.274Z,19.42
2023-04-30T07:50:52.741Z,19.60
2023-04-30T07:53:19.760Z,19.60
2023-04-30T07:55:46.568Z,19.77
2023-04-30T07:58:13.037Z,21.95
2023-04-30T08:00:39.472Z,18.02
2023-04-30T08:03:06.013Z,21.27
2023-04-30T08:05:32.492Z,16.73
2023-04-30T08:07:58.942Z,17.13
2023-04-30T08:10:26.318Z,18.92
2023-04-30T08:12:53.218Z,18.25
2023-04-30T08:15:21.938Z,18.77
2023-04-30T08:17:51.751Z,18.20
2023-04-30T08:20:18.893Z,19.23
2023-04-30T08:22:46.601Z,16.20
2023-04-30T08:25:13.212Z,16.20
2023-04-30T08:27:39.749Z,17.23
2023-04-30T08:30:07.663Z,14.80
2023-04-30T08:32:37.845Z,15.52
2023-04-30T08:35:05.637Z,16.60
2023-04-30T08:37:32.387Z,13.70
2023-04-30T08:39:59.085Z,13.55
2023-04-30T08:42:30.684Z,14.00
2023-04-30T08:45:00.552Z,16.88
2023-04-30T08:47:28.352Z,13.35
2023-04-30T08:49:55.147Z,12.82
2023-04-30T08:52:22.284Z,15.13
2023-04-30T08:54:51.085Z,13.38
2023-04-30T08:57:18.523Z,13.20
2023-04-30T08:59:47.301Z,15.63
2023-04-30T09:02:14.362Z,12.68
2023-04-30T09:04:41.032Z,13.45
2023-04-30T09:07:09.560Z,11.93
2023-04-30T09:09:39.666Z,11.20
2023-04-30T09:12:20.619Z,11.63
2023-04-30T09:15:04.956Z,13.13
2023-04-30T09:17:32.772Z,13.02
2023-04-30T09:20:13.535Z,11.60
2023-04-30T09:22:41.922Z,10.13
2023-04-30T09:25:09.933Z,13.43
2023-04-30T09:27:36.488Z,12.63
2023-04-30T09:30:03.304Z,9.48
2023-04-30T09:32:29.805Z,12.13
2023-04-30T09:34:56.423Z,10.55
2023-04-30T09:37:38.228Z,10.75
2023-04-30T09:40:05.285Z,10.73
2023-04-30T09:42:31.904Z,12.30
2023-04-30T09:44:58.504Z,8.50
2023-04-30T09:47:30.004Z,9.73
2023-04-30T09:49:56.648Z,10.77
2023-04-30T09:52:23.307Z,10.38
2023-04-30T09:54:49.775Z,7.72
2023-04-30T09:57:16.690Z,8.23
2023-04-30T09:59:47.188Z,7.47
2023-04-30T10:02:20.090Z,6.53
2023-04-30T10:07:19.438Z,7.55
2023-04-30T10:09:54.641Z,7.97
2023-04-30T10:12:27.151Z,5.60
2023-04-30T10:15:02.949Z,7.78
2023-04-30T10:17:33.804Z,7.93
2023-04-30T10:20:06.440Z,7.07
2023-04-30T10:22:35.446Z,7.10
2023-04-30T10:25:03.032Z,7.32
2023-04-30T10:27:30.530Z,5.88
2023-04-30T10:29:57.989Z,7.32
2023-04-30T10:32:32.568Z,4.70
2023-04-30T10:35:45.310Z,2.80
2023-04-30T10:38:33.005Z,2.33
2023-04-30T10:41:04.266Z,1.75
2023-04-30T10:43:31.491Z,3.45
2023-04-30T10:45:58.801Z,3.30
2023-04-30T10:48:27.056Z,1.70
2023-04-30T10:50:57.268Z,2.70
2023-04-30T10:53:26.332Z,3.97
2023-04-30T10:56:12.241Z,2.50
2023-04-30T10:58:41.860Z,2.97
2023-04-30T11:01:17.880Z,4.45
2023-04-30T11:04:08.504Z,4.15
2023-04-30T11:07:10.667Z,2.20
2023-04-30T11:09:43.679Z,3.42
2023-04-30T11:12:15.637Z,2.25
2023-04-30T11:14:44.641Z,3.10
2023-04-30T11:17:13.773Z,1.67
2023-04-30T11:19:48.163Z,2.65
2023-04-30T11:22:19.671Z,4.22
2023-04-30T11:24:52.983Z,5.30
2023-04-30T11:27:27.071Z,4.93
2023-04-30T11:29:55.285Z,6.03
2023-04-30T11:32:23.807Z,3.50
2023-04-30T11:34:50.775Z,6.25
2023-04-30T11:37:37.802Z,4.80
2023-04-30T11:40:07.549Z,4.53
2023-04-30T11:42:35.020Z,4.63
2023-04-30T11:45:09.990Z,4.30
2023-04-30T11:47:48.210Z,4.10
2023-04-30T11:50:19.630Z,4.82
2023-04-30T11:52:50.845Z,8.55
2023-04-30T11:55:19.190Z,4.80
2023-04-30T11:57:49.278Z,4.55
2023-04-30T12:00:18.365Z,6.05
2023-04-30T12:02:47.796Z,4.78
2023-04-30T12:05:19.007Z,4.70
2023-04-30T12:07:51.146Z,7.03
2023-04-30T12:10:21.024Z,15.43
2023-04-30T12:12:51.307Z,7.00
2023-04-30T12:15:23.245Z,6.35
2023-04-30T12:17:49.797Z,3.90
2023-04-30T12:20:16.507Z,4.85
2023-04-30T12:22:44.328Z,4.15
2023-04-30T12:25:19.470Z,4.43
2023-04-30T12:27:48.032Z,3.03
2023-04-30T12:30:15.149Z,3.72
2023-04-30T12:32:46.546Z,4.68
2023-04-30T12:35:19.730Z,2.95
2023-04-30T12:37:52.264Z,4.03
2023-04-30T12:40:20.600Z,4.18
2023-04-30T12:42:47.875Z,4.75
2023-04-30T12:45:45.167Z,3.97
2023-04-30T12:48:11.826Z,3.05
2023-04-30T12:50:39.321Z,2.80
2023-04-30T12:53:07.558Z,4.05
2023-04-30T12:55:35.275Z,3.03
2023-04-30T12:58:06.305Z,3.28
2023-04-30T13:00:45.091Z,3.95
2023-04-30T13:03:16.740Z,3.30
2023-04-30T13:05:48.421Z,3.20
2023-04-30T13:08:15.470Z,2.47
2023-04-30T13:10:42.302Z,2.50
2023-04-30T13:13:08.796Z,2.85
2023-04-30T13:15:35.340Z,2.72
2023-04-30T13:18:02.092Z,5.53
2023-04-30T13:20:28.549Z,2.83
2023-04-30T13:22:55.084Z,3.58
2023-04-30T13:25:22.250Z,3.60
2023-04-30T13:27:48.768Z,3.65
2023-04-30T13:30:15.288Z,2.97
2023-04-30T13:32:43.038Z,2.28
2023-04-30T13:35:10.240Z,1.80
2023-04-30T13:37:36.799Z,1.92
2023-04-30T13:40:04.133Z,8.25
2023-04-30T13:42:30.934Z,3.25
2023-04-30T13:44:57.737Z,3.70
2023-04-30T13:47:24.380Z,2.75
2023-04-30T13:49:51.060Z,1.98
2023-04-30T13:52:17.557Z,3.67
2023-04-30T13:54:44.097Z,2.10
2023-04-30T13:57:10.621Z,4.50
2023-04-30T13:59:37.096Z,4.05
2023-04-30T14:02:03.674Z,2.45
2023-04-30T14:04:31.337Z,2.90
2023-04-30T14:06:57.987Z,3.47
2023-04-30T14:09:24.562Z,2.05
2023-04-30T14:11:51.423Z,4.55
2023-04-30T14:14:18.003Z,2.63
2023-04-30T14:16:44.936Z,2.92
2023-04-30T14:19:11.671Z,4.35
2023-04-30T14:21:38.155Z,2.63
2023-04-30T14:24:05.012Z,2.15
2023-04-30T14:26:31.556Z,4.03
2023-04-30T14:28:58.178Z,5.53
2023-04-30T14:31:24.640Z,5.35
2023-04-30T14:33:51.136Z,3.40
2023-04-30T14:36:17.772Z,4.00
2023-04-30T14:38:44.243Z,9.02
2023-04-30T14:41:10.778Z,31.85
2023-04-30T14:43:37.270Z,10.07
2023-04-30T14:46:04.131Z,6.63
2023-04-30T14:48:30.632Z,6.60
2023-04-30T14:50:57.190Z,6.22
2023-04-30T14:53:23.682Z,4.43
2023-04-30T14:55:50.475Z,7.88
2023-04-30T14:58:16.914Z,5.70
2023-04-30T15:00:43.368Z,5.07
2023-04-30T15:03:09.909Z,4.65
2023-04-30T15:05:36.594Z,4.35
2023-04-30T15:08:03.282Z,2.63
2023-04-30T15:10:29.767Z,3.20
2023-04-30T15:12:56.238Z,3.10
2023-04-30T15:15:27.835Z,2.88
2023-04-30T15:17:56.441Z,3.85
2023-04-30T15:20:23.061Z,60.90
2023-04-30T15:22:54.847Z,17.38
2023-04-30T15:25:24.601Z,10.75
2023-04-30T15:27:54.166Z,9.98
2023-04-30T15:30:21.688Z,4.40
2023-04-30T15:32:50.086Z,5.32
2023-04-30T15:35:17.123Z,2.78
2023-04-30T15:37:44.802Z,5.30
2023-04-30T15:40:15.171Z,6.55
2023-04-30T15:42:42.013Z,5.68
2023-04-30T15:45:09.769Z,4.00
2023-04-30T15:47:38.769Z,4.82
2023-04-30T15:50:06.090Z,4.07
2023-04-30T15:52:32.585Z,3.97
2023-04-30T15:54:59.102Z,4.00
2023-04-30T15:57:25.730Z,4.18
2023-04-30T15:59:52.227Z,8.55
2023-04-30T16:02:18.864Z,6.57
2023-04-30T16:04:45.411Z,3.42
2023-04-30T16:07:12.065Z,6.47
2023-04-30T16:09:39.072Z,3.10
2023-04-30T16:12:05.801Z,4.68
2023-04-30T16:14:32.295Z,3.55
2023-04-30T16:16:58.792Z,4.60
2023-04-30T16:19:25.423Z,3.85
2023-04-30T16:21:51.915Z,3.72
2023-04-30T16:24:18.392Z,3.90
2023-04-30T16:26:44.869Z,4.05
2023-04-30T16:29:11.391Z,4.13
2023-04-30T16:31:38.193Z,3.53
2023-04-30T16:34:04.740Z,3.88
2023-04-30T16:36:31.189Z,5.72
2023-04-30T16:38:57.673Z,5.20
2023-04-30T16:41:24.605Z,3.50
2023-04-30T16:43:51.280Z,5.82
2023-04-30T16:46:18.820Z,3.90
2023-04-30T16:48:45.462Z,3.53
2023-04-30T16:51:11.952Z,3.78
2023-04-30T16:53:38.504Z,5.38
2023-04-30T16:56:05.362Z,3.95
2023-04-30T16:58:32.017Z,3.53
2023-04-30T17:00:59.142Z,4.43
2023-04-30T17:03:25.877Z,6.25
2023-04-30T17:05:53.423Z,5.25
2023-04-30T17:08:21.115Z,3.10
2023-04-30T17:10:47.696Z,7.43
2023-04-30T17:13:14.808Z,5.05
2023-04-30T17:15:41.387Z,5.90
2023-04-30T17:18:09.615Z,4.68
2023-04-30T17:20:36.461Z,5.82
2023-04-30T17:23:03.571Z,3.92
2023-04-30T17:25:31.806Z,4.15
2023-04-30T17:28:01.561Z,3.25
2023-04-30T17:30:28.960Z,7.43
2023-04-30T17:32:56.345Z,4.55
2023-04-30T17:35:22.979Z,4.80
2023-04-30T17:37:49.432Z,2.78
2023-04-30T17:40:16.045Z,3.13
2023-04-30T17:42:42.549Z,2.15
2023-04-30T17:45:09.400Z,4.53
2023-04-30T17:47:35.942Z,3.53
2023-04-30T17:50:04.871Z,2.58
2023-04-30T17:52:33.522Z,1.98
2023-04-30T17:55:00.040Z,3.65
2023-04-30T17:57:26.559Z,2.50
2023-04-30T17:59:53.110Z,2.60
2023-04-30T18:02:19.720Z,9.40
2023-04-30T18:04:46.269Z,4.35
2023-04-30T18:07:12.788Z,4.93
2023-04-30T18:09:39.220Z,2.80
2023-04-30T18:12:05.832Z,3.92
2023-04-30T18:14:32.590Z,2.70
2023-04-30T18:16:59.382Z,4.53
2023-04-30T18:19:25.943Z,3.17
2023-04-30T18:21:56.723Z,4.03
2023-04-30T18:24:27.816Z,3.58
2023-04-30T18:26:55.273Z,3.50
2023-04-30T18:29:21.890Z,2.58
2023-04-30T18:31:48.729Z,3.05
2023-04-30T18:34:15.796Z,3.63
2023-04-30T18:36:45.324Z,4.75
2023-04-30T18:39:12.414Z,4.00
2023-04-30T18:41:38.909Z,4.10
2023-04-30T18:44:05.825Z,3.67
2023-04-30T18:46:32.375Z,3.85
2023-04-30T18:48:58.864Z,4.80
2023-04-30T18:51:25.542Z,2.47
2023-04-30T18:53:52.254Z,4.35
2023-04-30T18:56:18.806Z,3.92
2023-04-30T18:58:46.748Z,6.22
2023-04-30T19:01:16.304Z,3.70
2023-04-30T19:03:42.957Z,3.88
2023-04-30T19:06:09.841Z,4.32
2023-04-30T19:08:36.816Z,5.47
2023-04-30T19:11:03.561Z,5.82
2023-04-30T19:13:30.134Z,7.78
2023-04-30T19:15:56.714Z,30.60
2023-04-30T19:18:24.557Z,17.13
2023-04-30T19:21:09.440Z,7.70
2023-04-30T19:23:36.006Z,40.28
2023-04-30T19:26:03.011Z,63.95
2023-04-30T19:28:29.488Z,60.08
2023-04-30T19:30:56.500Z,21.42
2023-04-30T19:33:24.641Z,12.73
2023-04-30T19:35:53.494Z,10.63
2023-04-30T19:38:23.635Z,5.78
2023-04-30T19:40:53.151Z,4.35
2023-04-30T19:43:21.015Z,3.55
2023-04-30T19:45:51.029Z,6.97
2023-04-30T19:48:17.694Z,5.78
2023-04-30T19:50:46.792Z,6.13
2023-04-30T19:53:17.249Z,3.50
2023-04-30T19:55:44.188Z,6.60
2023-04-30T19:58:10.714Z,3.53
2023-04-30T20:00:38.625Z,5.65
2023-04-30T20:03:05.490Z,4.82
2023-04-30T20:05:34.161Z,4.75
2023-04-30T20:08:04.575Z,8.88
2023-04-30T20:10:31.852Z,6.95
2023-04-30T20:12:58.391Z,5.72
2023-04-30T20:15:25.133Z,4.20
2023-04-30T20:17:52.944Z,5.82
2023-04-30T20:20:20.987Z,4.30
2023-04-30T20:22:50.908Z,6.53
2023-04-30T20:25:17.900Z,3.28
2023-04-30T20:27:44.579Z,5.20
2023-04-30T20:30:12.370Z,7.13
2023-04-30T20:32:39.902Z,4.55
2023-04-30T20:35:07.688Z,5.50
2023-04-30T20:37:35.391Z,4.18
2023-04-30T20:40:02.313Z,4.70
2023-04-30T20:42:29.046Z,3.92
2023-04-30T20:44:56.370Z,3.95
2023-04-30T20:47:23.868Z,3.80
2023-04-30T20:49:51.194Z,4.80
2023-04-30T20:52:18.706Z,3.97
2023-04-30T20:54:45.899Z,6.35
2023-04-30T20:57:12.844Z,4.75
2023-04-30T20:59:39.324Z,5.20
2023-04-30T21:02:05.855Z,5.22
2023-04-30T21:04:32.355Z,8.55
2023-04-30T21:06:58.854Z,5.30
2023-04-30T21:09:25.598Z,5.75
2023-04-30T21:11:52.329Z,6.43
2023-04-30T21:14:18.946Z,5.22
2023-04-30T21:16:45.526Z,9.73
2023-04-30T21:19:12.151Z,4.40
2023-04-30T21:21:38.664Z,4.72
2023-04-30T21:24:05.629Z,6.82
2023-04-30T21:26:32.240Z,5.93
2023-04-30T21:28:58.854Z,6.70
2023-04-30T21:31:25.808Z,6.30
2023-04-30T21:33:52.540Z,6.43
2023-04-30T21:36:20.296Z,6.80
2023-04-30T21:38:46.754Z,5.18
2023-04-30T21:41:14.465Z,4.00
2023-04-30T21:43:44.258Z,5.43
2023-04-30T21:46:11.100Z,4.88
2023-04-30T21:48:38.409Z,4.30
2023-04-30T21:51:15.350Z,5.93
2023-04-30T21:53:42.399Z,4.78
2023-04-30T21:56:10.917Z,5.80
2023-04-30T21:58:38.564Z,4.18
2023-04-30T22:01:05.531Z,4.45
2023-04-30T22:03:32.750Z,3.88
2023-04-30T22:05:59.607Z,4.57
2023-04-30T22:08:26.221Z,4.55
2023-04-30T22:11:00.518Z,6.05
2023-04-30T22:13:28.435Z,3.85
2023-04-30T22:15:55.486Z,5.15
2023-04-30T22:18:22.921Z,7.82
2023-04-30T22:20:50.996Z,6.18
2023-04-30T22:23:18.772Z,4.93
2023-04-30T22:25:45.258Z,5.85
2023-04-30T22:28:11.925Z,5.60
2023-04-30T22:30:39.604Z,5.55
2023-04-30T22:33:06.601Z,10.70
2023-04-30T22:35:36.450Z,6.25
2023-04-30T22:38:03.487Z,6.00
2023-04-30T22:40:32.064Z,4.75
2023-04-30T22:42:59.473Z,5.47
2023-04-30T22:45:26.942Z,6.18
2023-04-30T22:47:54.336Z,5.82
2023-04-30T22:50:21.056Z,4.95
2023-04-30T22:52:47.832Z,6.47
2023-04-30T22:55:14.547Z,5.25
2023-04-30T22:57:41.205Z,6.63
2023-04-30T23:00:09.652Z,5.05
2023-04-30T23:02:36.792Z,8.30
2023-04-30T23:05:04.035Z,5.00
2023-04-30T23:07:30.625Z,6.97
2023-04-30T23:09:57.458Z,7.75
2023-04-30T23:12:24.185Z,8.13
2023-04-30T23:14:51.012Z,6.47
2023-04-30T23:17:18.106Z,6.65
2023-04-30T23:19:44.706Z,4.57
2023-04-30T23:22:11.165Z,6.55
2023-04-30T23:24:38.616Z,8.93
2023-04-30T23:27:05.117Z,6.10
2023-04-30T23:29:32.244Z,5.15
2023-04-30T23:31:59.481Z,7.43
2023-04-30T23:34:26.140Z,4.63
2023-04-30T23:36:52.645Z,4.80
2023-04-30T23:39:19.243Z,6.15
2023-04-30T23:41:45.765Z,5.18
2023-04-30T23:44:13.435Z,6.57
2023-04-30T23:46:41.484Z,6.97
2023-04-30T23:49:09.959Z,5.07
2023-04-30T23:51:36.937Z,7.22
2023-04-30T23:54:04.512Z,7.35
2023-04-30T23:56:31.551Z,8.07
2023-04-30T23:58:58.085Z,5.38
